Time;durP1;ratioP1;P1;durP2;ratioP2;P2;SDS_P1;SDS_P2;PMS_P1;PMS_P2;Temp;Humidity;BMP_temperature;BMP_pressure;BME280_temperature;BME280_humidity;BME280_pressure;Samples;Min_cycle;Max_cycle;Signal;HPM_P1;HPM_P2
2021/08/05 00:00:08;;;;;;;14.18;8.73;;;16.20;83.30;;;;;;5113296;27;20420;-85
2021/08/05 00:02:33;;;;;;;13.32;8.35;;;16.20;83.00;;;;;;5122101;27;20027;-85
2021/08/05 00:04:59;;;;;;;14.07;8.27;;;16.20;83.40;;;;;;5093965;28;20567;-85
2021/08/05 00:07:25;;;;;;;12.82;6.88;;;16.20;83.10;;;;;;5110419;28;20110;-85
2021/08/05 00:09:50;;;;;;;8.38;5.45;;;16.10;83.10;;;;;;5110291;27;20061;-84
2021/08/05 00:12:16;;;;;;;5.25;4.38;;;16.10;83.40;;;;;;5110628;28;20046;-84
2021/08/05 00:14:42;;;;;;;6.78;4.35;;;16.10;83.40;;;;;;5110742;28;20034;-85
2021/08/05 00:17:09;;;;;;;5.82;3.97;;;16.10;83.60;;;;;;5092872;28;20034;-84
2021/08/05 00:19:35;;;;;;;7.15;3.80;;;16.20;83.90;;;;;;5088556;28;20028;-85
2021/08/05 00:22:00;;;;;;;5.22;3.67;;;16.20;83.60;;;;;;5109140;28;20031;-84
2021/08/05 00:24:26;;;;;;;5.45;4.05;;;16.20;83.60;;;;;;5091035;28;20043;-84
2021/08/05 00:26:51;;;;;;;7.18;3.75;;;16.10;83.40;;;;;;5110797;28;20106;-84
2021/08/05 00:29:17;;;;;;;9.25;6.10;;;16.10;84.60;;;;;;5110767;28;20034;-84
2021/08/05 00:31:43;;;;;;;8.60;5.90;;;16.10;84.10;;;;;;5113323;28;20454;-85
2021/08/05 00:34:08;;;;;;;33.75;16.48;;;16.10;84.10;;;;;;5110941;28;20019;-85
2021/08/05 00:36:34;;;;;;;17.02;10.63;;;16.10;83.70;;;;;;5111167;28;20031;-86
2021/08/05 00:39:00;;;;;;;14.85;9.48;;;16.10;83.90;;;;;;5110349;28;20127;-86
2021/08/05 00:41:25;;;;;;;10.77;6.88;;;16.10;84.10;;;;;;5109608;28;20024;-85
2021/08/05 00:43:51;;;;;;;26.60;15.50;;;16.10;84.40;;;;;;5110050;28;20039;-85
2021/08/05 00:46:17;;;;;;;8.85;6.13;;;16.10;84.00;;;;;;5110501;27;20489;-85
2021/08/05 00:48:42;;;;;;;6.68;5.20;;;16.10;83.90;;;;;;5096338;28;20031;-84
2021/08/05 00:51:08;;;;;;;7.28;4.50;;;16.10;84.40;;;;;;5095783;27;20034;-85
2021/08/05 00:53:33;;;;;;;6.15;4.47;;;16.10;84.30;;;;;;5096828;28;20028;-85
2021/08/05 00:55:59;;;;;;;8.05;4.57;;;16.10;84.50;;;;;;5114803;27;20035;-85
2021/08/05 00:58:25;;;;;;;29.58;16.02;;;16.10;84.30;;;;;;5114425;28;20020;-85
2021/08/05 01:00:56;;;;;;;14.30;9.32;;;16.20;84.80;;;;;;5097345;28;20028;-85
2021/08/05 01:03:34;;;;;;;8.07;5.28;;;16.10;84.70;;;;;;5110619;28;20514;-85
2021/08/05 01:06:36;;;;;;;10.70;7.00;;;16.20;84.20;;;;;;5114652;27;20031;-85
2021/08/05 01:09:04;;;;;;;14.52;8.95;;;16.10;84.00;;;;;;5071754;28;20041;-84
2021/08/05 01:11:36;;;;;;;14.02;8.68;;;16.10;84.40;;;;;;5071008;28;20039;-85
2021/08/05 01:14:08;;;;;;;14.47;8.40;;;16.10;84.30;;;;;;5071482;28;20048;-85
2021/08/05 01:16:36;;;;;;;13.90;8.05;;;16.10;84.50;;;;;;5070807;28;20291;-85
2021/08/05 01:19:13;;;;;;;12.40;7.88;;;16.10;84.70;;;;;;5070822;28;20078;-85
2021/08/05 01:22:00;;;;;;;11.40;7.80;;;16.10;84.60;;;;;;5067371;28;20115;-85
2021/08/05 01:24:29;;;;;;;9.20;5.40;;;16.10;84.50;;;;;;5048513;28;20032;-85
2021/08/05 01:27:00;;;;;;;8.02;5.07;;;16.10;84.40;;;;;;5052675;28;20043;-85
2021/08/05 01:29:27;;;;;;;34.50;19.27;;;16.00;85.10;;;;;;5047802;28;20025;-85
2021/08/05 01:31:53;;;;;;;27.40;14.10;;;15.90;84.30;;;;;;5069819;28;20051;-85
2021/08/05 01:34:20;;;;;;;14.18;8.60;;;16.00;84.50;;;;;;5071677;28;20033;-85
2021/08/05 01:36:48;;;;;;;25.88;14.90;;;15.90;84.70;;;;;;5069975;28;20506;-85
2021/08/05 01:39:14;;;;;;;10.75;7.10;;;15.80;84.60;;;;;;5070960;28;20127;-85
2021/08/05 01:41:41;;;;;;;11.55;6.15;;;15.80;84.60;;;;;;5068582;28;20039;-86
2021/08/05 01:44:08;;;;;;;7.63;5.45;;;15.80;84.80;;;;;;5068641;28;20475;-85
2021/08/05 01:46:34;;;;;;;8.13;5.10;;;15.80;84.90;;;;;;5106092;27;20032;-86
2021/08/05 01:49:01;;;;;;;18.92;11.43;;;15.80;84.90;;;;;;5113929;27;20047;-86
2021/08/05 01:51:28;;;;;;;8.98;6.18;;;15.80;85.30;;;;;;5113400;28;20107;-85
2021/08/05 01:53:54;;;;;;;5.70;4.47;;;15.80;85.10;;;;;;5114061;28;20035;-86
2021/08/05 01:56:21;;;;;;;6.85;4.90;;;15.80;85.60;;;;;;5111794;28;20031;-86
2021/08/05 01:58:47;;;;;;;7.00;5.10;;;15.80;86.40;;;;;;5094722;28;20046;-86
2021/08/05 02:01:15;;;;;;;5.15;4.38;;;15.80;85.50;;;;;;5113604;28;20379;-85
2021/08/05 02:03:43;;;;;;;6.97;4.72;;;15.80;85.50;;;;;;5112837;27;20016;-86
2021/08/05 02:06:13;;;;;;;8.98;4.28;;;15.80;85.30;;;;;;5112999;27;20114;-85
2021/08/05 02:08:49;;;;;;;6.95;4.35;;;15.80;85.50;;;;;;5094803;28;20525;-86
2021/08/05 02:11:15;;;;;;;6.75;4.35;;;15.80;85.40;;;;;;5093529;28;20026;-85
2021/08/05 02:13:42;;;;;;;6.68;4.18;;;15.80;85.60;;;;;;5113533;28;20035;-88
2021/08/05 02:16:17;;;;;;;6.32;4.20;;;15.80;85.50;;;;;;5115412;27;20560;-88
2021/08/05 02:18:46;;;;;;;4.95;3.83;;;15.80;85.60;;;;;;5128998;27;20036;-88
2021/08/05 02:21:16;;;;;;;6.43;3.70;;;15.80;85.90;;;;;;5093811;28;20028;-87
2021/08/05 02:23:43;;;;;;;6.53;4.47;;;15.80;85.60;;;;;;5113216;27;20472;-87
2021/08/05 02:26:09;;;;;;;5.88;4.18;;;15.80;85.50;;;;;;5112681;27;20055;-86
2021/08/05 02:28:35;;;;;;;8.52;4.38;;;15.80;85.50;;;;;;5094782;28;20092;-86
2021/08/05 02:31:01;;;;;;;5.72;4.35;;;15.80;85.70;;;;;;5097943;28;20496;-86
2021/08/05 02:33:30;;;;;;;8.18;4.60;;;15.80;86.20;;;;;;5113090;27;20081;-86
2021/08/05 02:35:56;;;;;;;6.25;4.30;;;15.80;86.20;;;;;;5094968;28;20024;-86
2021/08/05 02:38:23;;;;;;;6.57;4.20;;;15.90;86.70;;;;;;5095046;28;20063;-86
2021/08/05 02:40:50;;;;;;;5.38;4.32;;;16.00;86.80;;;;;;5107511;27;20065;-86
2021/08/05 02:43:17;;;;;;;7.20;4.10;;;16.00;86.20;;;;;;5113195;27;20031;-86
2021/08/05 02:45:46;;;;;;;7.57;4.30;;;16.10;86.50;;;;;;5113043;27;20019;-86
2021/08/05 02:48:12;;;;;;;7.18;4.13;;;16.10;87.60;;;;;;5112432;27;20039;-87
2021/08/05 02:50:39;;;;;;;5.38;4.03;;;16.20;86.60;;;;;;5112690;27;20019;-87
2021/08/05 02:53:06;;;;;;;7.03;4.25;;;16.20;86.70;;;;;;5129385;27;20031;-87
2021/08/05 02:55:32;;;;;;;7.00;4.60;;;16.20;87.90;;;;;;5087791;28;20062;-87
2021/08/05 02:57:59;;;;;;;10.48;4.40;;;16.30;86.80;;;;;;5112754;28;20102;-87
2021/08/05 03:00:25;;;;;;;5.07;4.10;;;16.30;87.00;;;;;;5125973;27;20360;-87
2021/08/05 03:02:50;;;;;;;10.63;5.03;;;16.30;88.20;;;;;;5094025;28;20037;-87
2021/08/05 03:05:17;;;;;;;5.95;4.22;;;16.40;87.30;;;;;;5111891;27;20027;-87
2021/08/05 03:07:43;;;;;;;7.35;4.43;;;16.30;87.70;;;;;;5112378;28;20385;-87
2021/08/05 03:10:11;;;;;;;8.80;4.93;;;16.30;87.50;;;;;;5112700;27;20122;-87
2021/08/05 03:12:37;;;;;;;6.55;4.50;;;16.30;87.40;;;;;;5093685;28;20403;-87
2021/08/05 03:15:03;;;;;;;10.57;4.63;;;16.40;87.60;;;;;;5112267;28;20036;-87
2021/08/05 03:17:29;;;;;;;9.90;5.22;;;16.40;87.70;;;;;;5117273;27;20090;-87
2021/08/05 03:19:55;;;;;;;6.25;4.90;;;16.40;87.40;;;;;;5112858;27;20027;-86
2021/08/05 03:22:20;;;;;;;7.40;4.38;;;16.40;87.50;;;;;;5112303;28;20568;-86
2021/08/05 03:24:46;;;;;;;8.73;4.63;;;16.40;87.60;;;;;;5112749;28;20019;-87
2021/08/05 03:27:12;;;;;;;9.88;5.15;;;16.40;87.60;;;;;;5111546;28;20028;-87
2021/08/05 03:29:38;;;;;;;9.45;4.57;;;16.50;88.20;;;;;;5111052;28;20066;-87
2021/08/05 03:32:04;;;;;;;7.40;4.25;;;16.50;88.10;;;;;;5111468;27;20024;-85
2021/08/05 03:34:30;;;;;;;6.28;4.55;;;16.50;87.70;;;;;;5109238;27;20028;-85
2021/08/05 03:36:56;;;;;;;6.72;4.07;;;16.50;87.70;;;;;;5094425;28;20114;-86
2021/08/05 03:39:22;;;;;;;7.10;4.25;;;16.50;88.70;;;;;;5111544;28;20099;-86
2021/08/05 03:41:47;;;;;;;7.47;4.25;;;16.50;87.90;;;;;;5093522;28;20031;-86
2021/08/05 03:44:13;;;;;;;6.55;4.18;;;16.50;88.30;;;;;;5092920;28;20035;-86
2021/08/05 03:46:39;;;;;;;6.05;4.38;;;16.50;87.80;;;;;;5092078;28;20039;-86
2021/08/05 03:49:05;;;;;;;6.15;4.22;;;16.50;88.90;;;;;;5112394;28;20043;-86
2021/08/05 03:51:31;;;;;;;7.15;4.20;;;16.50;88.00;;;;;;5111415;27;20027;-86
2021/08/05 03:53:56;;;;;;;7.82;4.50;;;16.50;87.90;;;;;;5093226;27;20028;-86
2021/08/05 03:56:22;;;;;;;7.03;4.25;;;16.50;87.90;;;;;;5111884;28;20455;-85
2021/08/05 03:58:48;;;;;;;6.53;3.95;;;16.40;88.10;;;;;;5111778;28;20057;-85
2021/08/05 04:01:14;;;;;;;6.80;4.50;;;16.40;88.00;;;;;;5110795;28;20342;-85
2021/08/05 04:03:39;;;;;;;7.50;3.45;;;16.40;87.60;;;;;;5092742;28;20031;-85
2021/08/05 04:06:05;;;;;;;6.45;4.03;;;16.40;87.80;;;;;;5092360;28;20023;-84
2021/08/05 04:08:31;;;;;;;8.40;4.32;;;16.40;88.20;;;;;;5110660;28;20122;-85
2021/08/05 04:10:56;;;;;;;6.28;4.43;;;16.40;89.20;;;;;;5112060;27;20030;-85
2021/08/05 04:13:22;;;;;;;7.68;4.68;;;16.40;88.10;;;;;;5111479;28;20030;-84
2021/08/05 04:15:48;;;;;;;6.72;4.13;;;16.40;87.80;;;;;;5110638;28;20503;-85
2021/08/05 04:18:13;;;;;;;6.88;4.15;;;16.40;87.90;;;;;;5110181;28;20032;-85
2021/08/05 04:20:39;;;;;;;5.63;3.97;;;16.30;87.90;;;;;;5092385;28;20030;-86
2021/08/05 04:23:05;;;;;;;5.70;4.38;;;16.30;87.60;;;;;;5126210;27;20047;-84
2021/08/05 04:25:31;;;;;;;7.07;4.40;;;16.30;87.60;;;;;;5106101;28;20027;-85
2021/08/05 04:27:57;;;;;;;9.15;3.70;;;16.20;87.40;;;;;;5091983;28;20043;-85
2021/08/05 04:30:25;;;;;;;5.38;3.90;;;16.10;87.70;;;;;;5093827;28;20562;-86
2021/08/05 04:32:51;;;;;;;5.85;4.18;;;16.10;89.10;;;;;;5122225;27;20039;-85
2021/08/05 04:35:17;;;;;;;6.80;4.20;;;16.10;87.70;;;;;;5110842;28;20479;-86
2021/08/05 04:37:54;;;;;;;7.43;4.25;;;16.10;88.00;;;;;;5092509;28;20031;-85
2021/08/05 04:40:20;;;;;;;8.10;4.60;;;16.10;87.80;;;;;;5111153;28;20384;-86
2021/08/05 04:42:46;;;;;;;6.53;4.00;;;16.10;87.60;;;;;;5110788;28;20402;-86
2021/08/05 04:45:13;;;;;;;7.07;4.28;;;16.10;88.00;;;;;;5110976;28;20057;-86
2021/08/05 04:47:58;;;;;;;6.90;4.47;;;16.10;88.20;;;;;;5092576;28;20035;-86
2021/08/05 04:50:26;;;;;;;5.93;3.95;;;16.10;87.60;;;;;;5110374;28;20035;-88
2021/08/05 04:52:52;;;;;;;6.35;4.30;;;16.10;87.90;;;;;;5111001;28;20027;-87
2021/08/05 04:55:18;;;;;;;6.20;4.07;;;16.10;88.30;;;;;;5108955;28;20031;-87
2021/08/05 04:57:48;;;;;;;5.15;3.78;;;16.10;88.00;;;;;;5110564;28;20045;-87
2021/08/05 05:00:19;;;;;;;6.90;4.40;;;16.00;87.80;;;;;;5093190;28;20047;-86
2021/08/05 05:02:44;;;;;;;6.25;4.03;;;16.00;87.90;;;;;;5110957;28;20028;-85
2021/08/05 05:05:10;;;;;;;6.40;3.95;;;16.10;87.90;;;;;;5110726;28;20040;-86
2021/08/05 05:07:36;;;;;;;7.10;3.90;;;16.00;87.60;;;;;;5110386;28;20112;-85
2021/08/05 05:10:02;;;;;;;7.20;4.32;;;15.90;88.70;;;;;;5110599;28;20027;-86
2021/08/05 05:12:28;;;;;;;8.07;3.80;;;15.90;87.50;;;;;;5106971;28;20020;-87
2021/08/05 05:14:53;;;;;;;7.10;3.83;;;15.90;88.60;;;;;;5109973;28;20575;-87
2021/08/05 05:17:19;;;;;;;6.95;4.57;;;15.90;88.60;;;;;;5091664;28;20022;-87
2021/08/05 05:19:44;;;;;;;6.47;4.40;;;15.90;87.70;;;;;;5110433;28;20027;-87
2021/08/05 05:22:10;;;;;;;5.78;4.00;;;15.80;88.00;;;;;;5110895;28;20674;-85
2021/08/05 05:24:36;;;;;;;5.45;3.67;;;15.90;87.80;;;;;;5110404;28;20032;-85
2021/08/05 05:27:01;;;;;;;5.47;3.35;;;15.90;87.90;;;;;;5092012;28;20020;-85
2021/08/05 05:29:27;;;;;;;6.50;3.90;;;15.90;87.90;;;;;;5093711;28;20063;-85
2021/08/05 05:31:54;;;;;;;5.35;3.60;;;16.00;87.80;;;;;;5127489;27;20019;-85
2021/08/05 05:34:20;;;;;;;6.57;3.67;;;16.00;87.50;;;;;;5114152;28;20024;-85
2021/08/05 05:36:47;;;;;;;4.95;3.50;;;16.00;87.40;;;;;;5102611;27;20020;-85
2021/08/05 05:39:12;;;;;;;5.60;3.50;;;16.00;87.50;;;;;;5114422;27;20513;-85
2021/08/05 05:41:38;;;;;;;5.95;4.07;;;16.00;87.40;;;;;;5114640;27;20031;-85
2021/08/05 05:44:04;;;;;;;5.55;3.70;;;16.10;87.40;;;;;;5113914;27;20026;-85
2021/08/05 05:46:30;;;;;;;6.93;3.30;;;16.10;87.40;;;;;;5113688;27;20031;-85
2021/08/05 05:48:55;;;;;;;6.10;3.80;;;16.10;88.10;;;;;;5114479;28;20407;-85
2021/08/05 05:51:21;;;;;;;8.52;4.03;;;16.10;87.00;;;;;;5128680;27;20093;-87
2021/08/05 05:53:46;;;;;;;5.35;4.10;;;16.00;86.70;;;;;;5098823;27;20020;-86
2021/08/05 05:56:12;;;;;;;8.05;3.78;;;16.00;86.60;;;;;;5102146;27;20100;-87
2021/08/05 05:58:38;;;;;;;5.68;3.53;;;16.00;87.40;;;;;;5097248;28;20022;-81
2021/08/05 06:01:05;;;;;;;4.90;3.70;;;16.00;86.70;;;;;;5096075;28;20032;-83
2021/08/05 06:03:30;;;;;;;5.90;4.20;;;15.90;87.00;;;;;;5081682;28;20027;-84
2021/08/05 06:05:56;;;;;;;6.03;4.15;;;15.90;87.30;;;;;;5116068;27;20036;-84
2021/08/05 06:08:22;;;;;;;5.47;4.22;;;15.90;87.60;;;;;;5104660;28;20406;-82
2021/08/05 06:10:47;;;;;;;7.20;4.70;;;16.00;88.30;;;;;;5120267;27;20028;-82
2021/08/05 06:13:13;;;;;;;6.10;4.20;;;16.20;88.50;;;;;;5113317;28;20031;-84
2021/08/05 06:15:38;;;;;;;7.18;4.20;;;16.40;88.40;;;;;;5113878;27;20047;-82
2021/08/05 06:18:04;;;;;;;5.82;4.32;;;16.50;88.10;;;;;;5113262;27;20448;-84
2021/08/05 06:20:30;;;;;;;7.70;4.35;;;16.60;88.80;;;;;;5114633;27;20031;-83
2021/08/05 06:22:55;;;;;;;5.80;4.05;;;16.70;87.50;;;;;;5114061;28;20106;-83
2021/08/05 06:25:21;;;;;;;5.03;3.90;;;16.80;87.20;;;;;;5095744;28;20031;-85
2021/08/05 06:27:48;;;;;;;4.80;3.75;;;16.90;87.30;;;;;;5110458;27;20582;-84
2021/08/05 06:30:14;;;;;;;7.75;4.20;;;16.90;86.80;;;;;;5112810;27;20069;-86
2021/08/05 06:32:40;;;;;;;5.72;3.80;;;16.90;86.90;;;;;;5113593;27;20035;-88
2021/08/05 06:35:06;;;;;;;5.00;3.70;;;17.00;86.40;;;;;;5127945;27;20020;-84
2021/08/05 06:37:32;;;;;;;5.25;4.45;;;17.00;86.40;;;;;;5094014;28;20047;-78
2021/08/05 06:39:59;;;;;;;5.60;3.92;;;17.10;86.60;;;;;;5111852;27;20483;-89
2021/08/05 06:42:24;;;;;;;6.38;3.80;;;17.10;86.50;;;;;;5104673;27;20069;-87
2021/08/05 06:44:50;;;;;;;6.57;3.95;;;17.10;86.60;;;;;;5120184;27;20047;-89
2021/08/05 06:47:16;;;;;;;5.35;3.65;;;17.10;86.60;;;;;;5113827;27;20042;-91
2021/08/05 06:49:43;;;;;;;7.18;4.50;;;17.10;86.20;;;;;;5119735;27;20054;-85
2021/08/05 06:52:08;;;;;;;5.25;4.22;;;17.10;86.20;;;;;;5108685;27;20037;-85
2021/08/05 06:54:34;;;;;;;6.05;4.40;;;17.00;86.60;;;;;;5121276;27;20518;-86
2021/08/05 06:57:00;;;;;;;11.38;6.57;;;17.00;86.50;;;;;;5115635;27;20053;-85
2021/08/05 06:59:25;;;;;;;6.55;4.82;;;16.90;87.20;;;;;;5107830;27;20019;-87
2021/08/05 07:01:51;;;;;;;6.38;4.25;;;17.00;87.50;;;;;;5123921;27;20397;-85
2021/08/05 07:04:17;;;;;;;7.53;4.90;;;17.10;88.00;;;;;;5129154;27;20019;-85
2021/08/05 07:06:42;;;;;;;7.45;4.80;;;17.20;88.10;;;;;;5117644;27;20065;-86
2021/08/05 07:09:08;;;;;;;7.00;4.20;;;17.40;88.20;;;;;;5117070;27;20498;-85
2021/08/05 07:11:34;;;;;;;5.32;3.92;;;17.50;88.40;;;;;;5110325;28;20019;-84
2021/08/05 07:14:00;;;;;;;5.38;3.97;;;17.60;88.10;;;;;;5115996;27;20081;-86
2021/08/05 07:16:25;;;;;;;6.53;4.20;;;17.70;87.60;;;;;;5128522;27;20491;-87
2021/08/05 07:18:51;;;;;;;4.63;3.03;;;17.80;87.60;;;;;;5130235;27;20035;-85
2021/08/05 07:21:17;;;;;;;7.80;3.78;;;17.90;87.40;;;;;;5099134;28;20039;-88
2021/08/05 07:23:42;;;;;;;5.32;3.13;;;18.00;87.30;;;;;;5091728;28;20027;-87
2021/08/05 07:26:10;;;;;;;4.35;3.50;;;18.10;87.20;;;;;;5123097;27;20072;-86
2021/08/05 07:28:35;;;;;;;4.65;3.17;;;18.20;86.70;;;;;;5109095;27;20023;-84
2021/08/05 07:31:01;;;;;;;5.03;3.08;;;18.30;86.80;;;;;;5109425;27;20385;-85
2021/08/05 07:33:27;;;;;;;4.22;3.20;;;18.30;86.70;;;;;;5122626;27;20166;-85
2021/08/05 07:35:52;;;;;;;6.60;3.63;;;18.40;86.30;;;;;;5101859;27;20031;-87
2021/08/05 07:38:18;;;;;;;6.45;3.08;;;18.40;86.10;;;;;;5106518;28;20030;-86
2021/08/05 07:40:44;;;;;;;4.75;3.20;;;18.50;86.00;;;;;;5108866;27;20041;-90
2021/08/05 07:43:09;;;;;;;6.45;3.17;;;18.50;85.20;;;;;;5118691;27;20038;-87
2021/08/05 07:45:35;;;;;;;4.97;2.88;;;18.50;85.20;;;;;;5105903;27;20034;-87
2021/08/05 07:48:01;;;;;;;4.38;2.75;;;18.50;85.20;;;;;;5100047;28;20571;-88
2021/08/05 07:50:27;;;;;;;4.45;2.88;;;18.60;85.20;;;;;;5111858;27;20019;-89
2021/08/05 07:52:53;;;;;;;4.10;2.55;;;18.50;84.90;;;;;;5124487;27;20056;-86
2021/08/05 07:55:19;;;;;;;4.85;3.10;;;18.50;85.10;;;;;;5130451;27;20023;-88
2021/08/05 07:57:46;;;;;;;4.70;2.97;;;18.40;86.20;;;;;;5101101;27;20035;-89
2021/08/05 08:00:12;;;;;;;3.33;2.63;;;18.40;85.60;;;;;;5101419;28;20050;-89
2021/08/05 08:02:38;;;;;;;4.53;2.80;;;18.50;85.80;;;;;;5096420;28;20015;-87
2021/08/05 08:05:04;;;;;;;4.20;2.85;;;18.40;85.50;;;;;;5105020;28;20032;-87
2021/08/05 08:07:38;;;;;;;3.95;2.47;;;18.40;86.00;;;;;;5117131;27;20020;-85
2021/08/05 08:10:04;;;;;;;4.30;2.88;;;18.40;87.40;;;;;;5120141;27;20050;-86
2021/08/05 08:12:30;;;;;;;4.18;2.88;;;18.50;86.40;;;;;;5096203;28;20027;-87
2021/08/05 08:14:56;;;;;;;3.85;2.42;;;18.50;86.00;;;;;;5096657;28;20036;-86
2021/08/05 08:17:21;;;;;;;3.13;2.20;;;18.50;86.00;;;;;;5093370;28;20032;-88
2021/08/05 08:19:47;;;;;;;5.10;2.28;;;18.60;86.20;;;;;;5079052;28;20119;-87
2021/08/05 08:22:12;;;;;;;3.63;2.10;;;18.50;85.70;;;;;;5099026;27;20030;-86
2021/08/05 08:24:38;;;;;;;4.50;2.30;;;18.60;86.10;;;;;;5112976;27;20024;-88
2021/08/05 08:27:04;;;;;;;3.75;2.40;;;18.60;86.00;;;;;;5122675;27;20120;-88
2021/08/05 08:29:30;;;;;;;4.40;2.22;;;18.60;85.80;;;;;;5121956;27;20038;-88
2021/08/05 08:31:56;;;;;;;2.88;1.92;;;18.60;85.60;;;;;;5125965;27;20039;-87
2021/08/05 08:34:21;;;;;;;2.83;1.90;;;18.70;86.30;;;;;;5113667;28;20063;-86
2021/08/05 08:36:48;;;;;;;3.65;1.83;;;18.70;86.30;;;;;;5112447;28;20023;-86
2021/08/05 08:39:14;;;;;;;4.68;1.92;;;18.90;86.50;;;;;;5112995;28;20027;-88
2021/08/05 08:41:41;;;;;;;5.30;1.90;;;19.10;85.90;;;;;;5093120;28;20023;-85
2021/08/05 08:44:07;;;;;;;2.60;1.60;;;19.20;84.80;;;;;;5092421;28;20059;-90
2021/08/05 08:46:34;;;;;;;3.28;1.98;;;19.40;85.60;;;;;;5111624;28;20030;-89
2021/08/05 08:49:01;;;;;;;2.72;1.65;;;19.60;83.70;;;;;;5110806;28;20031;-89
2021/08/05 08:51:33;;;;;;;4.45;1.77;;;19.60;82.30;;;;;;5117221;28;20076;-88
2021/08/05 08:54:04;;;;;;;3.03;1.90;;;19.50;83.00;;;;;;5111103;28;20108;-88
2021/08/05 08:56:30;;;;;;;1.80;1.30;;;19.60;83.70;;;;;;5102194;28;20073;-88
2021/08/05 08:58:58;;;;;;;3.70;2.25;;;19.70;83.10;;;;;;5120337;28;20035;-88
2021/08/05 09:01:25;;;;;;;4.53;2.30;;;19.70;82.10;;;;;;5128164;28;20027;-86
2021/08/05 09:03:50;;;;;;;2.97;1.70;;;19.70;80.90;;;;;;5111180;28;20069;-91
2021/08/05 09:06:16;;;;;;;3.33;1.55;;;19.70;81.80;;;;;;5111659;27;20027;-90
2021/08/05 09:08:42;;;;;;;3.42;1.60;;;19.70;82.20;;;;;;5127820;27;20116;-89
2021/08/05 09:11:08;;;;;;;3.17;1.60;;;19.80;81.40;;;;;;5129959;27;20570;-88
2021/08/05 09:13:35;;;;;;;2.45;1.45;;;19.70;80.20;;;;;;5108571;28;20372;-90
2021/08/05 09:16:00;;;;;;;1.77;1.30;;;19.60;80.00;;;;;;5125186;27;20224;-88
2021/08/05 09:18:38;;;;;;;1.48;1.17;;;19.60;80.60;;;;;;5117270;27;20027;-86
2021/08/05 09:21:04;;;;;;;2.70;1.15;;;19.40;80.70;;;;;;5111384;27;20027;-88
2021/08/05 09:23:47;;;;;;;3.13;1.50;;;19.40;81.40;;;;;;5127178;27;20478;-88
2021/08/05 09:26:37;;;;;;;3.65;1.55;;;19.30;81.70;;;;;;5125072;27;20391;-88
2021/08/05 09:29:09;;;;;;;2.05;1.30;;;19.20;81.70;;;;;;5107866;27;20118;-88
2021/08/05 09:31:39;;;;;;;1.50;1.30;;;19.20;81.30;;;;;;5128014;27;20469;-89
2021/08/05 09:34:13;;;;;;;2.50;1.35;;;19.10;81.70;;;;;;5122982;27;20031;-89
2021/08/05 09:36:40;;;;;;;1.85;1.23;;;19.30;82.90;;;;;;5128464;27;20027;-87
2021/08/05 09:39:23;;;;;;;3.33;1.55;;;19.40;81.80;;;;;;5110521;27;20106;-89
2021/08/05 09:42:13;;;;;;;3.03;1.77;;;19.50;81.40;;;;;;5114958;27;20035;-88
2021/08/05 09:44:38;;;;;;;3.15;1.50;;;19.40;80.00;;;;;;5117138;27;20027;-88
2021/08/05 09:47:07;;;;;;;2.50;1.30;;;19.40;81.80;;;;;;5116188;27;20028;-94
2021/08/05 09:50:01;;;;;;;1.90;1.23;;;19.60;82.00;;;;;;5109334;27;20057;-91
2021/08/05 09:52:35;;;;;;;2.10;1.40;;;19.60;81.40;;;;;;5109682;27;20060;-89
2021/08/05 09:55:06;;;;;;;2.22;1.50;;;19.50;80.20;;;;;;5120802;27;20019;-93
2021/08/05 09:57:36;;;;;;;3.28;1.30;;;19.40;80.10;;;;;;5133531;27;20019;-90
2021/08/05 10:00:06;;;;;;;1.60;1.00;;;19.30;80.10;;;;;;5129191;27;20506;-93
2021/08/05 10:02:42;;;;;;;1.48;1.38;;;19.20;80.10;;;;;;5124900;27;20098;-91
2021/08/05 10:05:22;;;;;;;3.28;1.63;;;19.20;80.80;;;;;;5124818;27;20028;-92
2021/08/05 10:07:49;;;;;;;4.55;1.70;;;19.00;81.10;;;;;;5106049;27;20036;-92
2021/08/05 10:10:16;;;;;;;2.70;1.60;;;18.90;81.70;;;;;;5126905;27;20030;-94
2021/08/05 10:12:50;;;;;;;2.35;1.50;;;18.90;81.80;;;;;;5117575;27;20139;-92
2021/08/05 10:15:16;;;;;;;2.15;1.30;;;19.20;82.50;;;;;;5117586;27;20452;-93
2021/08/05 10:17:42;;;;;;;4.35;1.65;;;19.50;81.70;;;;;;5123857;27;20018;-92
2021/08/05 10:20:11;;;;;;;3.13;1.50;;;19.80;80.80;;;;;;5112475;28;20036;-91
2021/08/05 10:22:38;;;;;;;2.15;1.38;;;20.10;80.00;;;;;;5127217;27;20019;-93
2021/08/05 10:25:10;;;;;;;2.53;1.63;;;20.40;78.10;;;;;;5129502;27;20030;-92
2021/08/05 10:27:36;;;;;;;3.13;1.60;;;20.60;77.10;;;;;;5107083;27;20054;-93
2021/08/05 10:30:05;;;;;;;3.28;1.50;;;20.70;76.20;;;;;;5108543;27;20028;-93
2021/08/05 10:32:33;;;;;;;3.40;1.40;;;20.70;77.10;;;;;;5108396;27;20023;-92
2021/08/05 10:34:59;;;;;;;1.77;1.20;;;20.80;75.60;;;;;;5113613;27;20107;-92
2021/08/05 10:37:25;;;;;;;1.73;1.30;;;20.70;75.40;;;;;;5126828;27;20543;-92
2021/08/05 10:39:52;;;;;;;2.42;1.48;;;20.70;76.00;;;;;;5130699;27;20109;-91
2021/08/05 10:42:19;;;;;;;4.70;2.20;;;20.80;76.40;;;;;;5122180;27;20068;-91
2021/08/05 10:44:48;;;;;;;2.65;1.55;;;21.00;77.70;;;;;;5104339;28;20111;-89
2021/08/05 10:47:27;;;;;;;2.60;1.25;;;21.20;76.30;;;;;;5111253;28;20034;-84
2021/08/05 10:49:58;;;;;;;2.92;1.45;;;21.10;75.50;;;;;;5103357;27;20028;-85
2021/08/05 10:52:36;;;;;;;5.13;1.50;;;21.20;74.30;;;;;;5118084;27;20102;-85
2021/08/05 10:55:32;;;;;;;3.17;1.60;;;21.10;74.50;;;;;;5121110;27;20041;-85
2021/08/05 10:58:28;;;;;;;2.47;1.77;;;20.90;74.50;;;;;;5100881;27;20411;-88
2021/08/05 11:01:01;;;;;;;3.10;1.83;;;20.70;74.90;;;;;;5109740;27;20055;-90
2021/08/05 11:03:44;;;;;;;;;;;20.60;76.10;;;;;;5125963;27;20015;-85
2021/08/05 11:06:22;;;;;;;4.73;2.80;;;20.50;76.30;;;;;;5125784;27;19914;-89
2021/08/05 11:08:48;;;;;;;4.50;2.38;;;20.30;76.70;;;;;;5108349;27;20706;-85
2021/08/05 11:11:19;;;;;;;5.68;2.60;;;20.30;78.30;;;;;;5127776;27;20086;-85
2021/08/05 11:14:05;;;;;;;4.30;1.60;;;20.40;77.90;;;;;;5109921;27;20032;-84
2021/08/05 11:17:07;;;;;;;2.90;1.50;;;20.40;78.10;;;;;;5028653;28;20049;-88
2021/08/05 11:19:35;;;;;;;5.78;1.80;;;20.50;78.30;;;;;;5007200;28;20025;-94
2021/08/05 11:22:29;;;;;;;3.80;2.00;;;20.60;78.10;;;;;;5015383;28;20040;-85
2021/08/05 11:24:55;;;;;;;3.60;1.80;;;20.60;77.80;;;;;;5021951;28;20509;-83
2021/08/05 11:27:21;;;;;;;4.55;2.00;;;20.60;78.00;;;;;;5026471;28;20501;-83
2021/08/05 11:29:48;;;;;;;3.83;1.98;;;20.50;79.00;;;;;;5011428;28;20080;-83
2021/08/05 11:32:25;;;;;;;3.85;2.25;;;20.40;79.10;;;;;;5027194;28;20021;-82
2021/08/05 11:35:02;;;;;;;3.00;2.05;;;20.30;80.00;;;;;;5027283;28;21588;-82
2021/08/05 11:37:28;;;;;;;3.50;2.20;;;20.30;81.90;;;;;;5027999;28;20607;-82
2021/08/05 11:39:57;;;;;;;4.30;2.33;;;20.40;81.70;;;;;;5028786;28;20128;-83
2021/08/05 11:42:24;;;;;;;4.07;2.10;;;20.50;82.60;;;;;;5028037;28;20033;-85
2021/08/05 11:44:59;;;;;;;3.42;2.03;;;20.50;81.40;;;;;;5028511;28;20018;-84
2021/08/05 11:47:27;;;;;;;5.03;3.30;;;20.60;81.00;;;;;;5006692;28;20080;-85
2021/08/05 11:49:57;;;;;;;2.30;2.00;;;20.80;82.00;;;;;;5011551;28;20545;-86
2021/08/05 11:52:24;;;;;;;3.92;2.75;;;21.10;80.80;;;;;;5027705;28;20036;-82
2021/08/05 11:54:57;;;;;;;2.58;1.70;;;21.10;79.10;;;;;;5105941;27;20117;-84
2021/08/05 11:57:24;;;;;;;3.28;1.73;;;21.00;78.90;;;;;;5120215;27;20027;-81
2021/08/05 11:59:51;;;;;;;2.58;1.60;;;20.80;79.80;;;;;;5117470;27;20081;-82
2021/08/05 12:02:20;;;;;;;2.15;1.40;;;20.70;80.50;;;;;;5102851;28;20051;-84
2021/08/05 12:04:46;;;;;;;2.13;1.13;;;20.60;80.60;;;;;;5126521;27;20475;-83
2021/08/05 12:07:16;;;;;;;1.77;1.20;;;20.50;81.60;;;;;;5108860;27;20101;-84
2021/08/05 12:09:42;;;;;;;1.60;1.10;;;20.50;82.30;;;;;;5119141;27;20023;-83
2021/08/05 12:12:08;;;;;;;2.40;1.30;;;20.50;82.40;;;;;;5103627;27;20505;-82
2021/08/05 12:14:34;;;;;;;2.45;1.40;;;20.50;81.80;;;;;;5104274;27;20027;-83
2021/08/05 12:17:00;;;;;;;1.50;1.10;;;20.40;81.80;;;;;;5106261;28;20036;-82
2021/08/05 12:19:29;;;;;;;2.22;1.27;;;20.30;82.50;;;;;;5129784;27;20048;-84
2021/08/05 12:21:55;;;;;;;1.83;1.20;;;20.20;83.00;;;;;;5106079;27;20091;-85
2021/08/05 12:24:23;;;;;;;1.83;1.30;;;20.00;83.50;;;;;;5105207;27;20490;-85
2021/08/05 12:26:59;;;;;;;1.50;0.93;;;19.90;84.70;;;;;;5122591;27;20023;-83
2021/08/05 12:29:24;;;;;;;2.05;1.00;;;19.80;84.50;;;;;;5117670;27;20031;-84
2021/08/05 12:31:50;;;;;;;2.45;1.10;;;19.90;85.60;;;;;;5115237;27;20123;-84
2021/08/05 12:34:18;;;;;;;2.03;1.00;;;19.90;85.90;;;;;;5126304;27;20085;-84
2021/08/05 12:36:44;;;;;;;1.63;1.08;;;19.90;85.60;;;;;;5103759;27;20030;-83
2021/08/05 12:39:09;;;;;;;1.92;1.13;;;19.90;85.80;;;;;;5112667;27;20803;-82
2021/08/05 12:41:49;;;;;;;1.75;1.08;;;20.10;86.00;;;;;;5093051;28;20024;-82
2021/08/05 12:44:23;;;;;;;1.33;0.88;;;20.30;85.80;;;;;;5128698;27;20131;-84
2021/08/05 12:46:51;;;;;;;1.70;1.20;;;20.90;86.10;;;;;;5107474;28;20090;-83
2021/08/05 12:49:18;;;;;;;2.25;1.20;;;21.10;83.20;;;;;;5125375;28;20027;-84